UTTT/TAS METAR and TAF weather

Enter ICAO airport designator
Station Type Date Time Source
UTTT METAR 2019/12/16 03:30 UTC NOAA

UTTT 160330Z 11004KT 0900 R08L/0900 PRFG NSC M04/M04 Q1028 R08L/CLRD70 NOSIG


Station Type Date Time Source
UTTT Decoded METAR 2019/12/16 03:30 UTC NOAA

Tashkent, Uzbekistan (UTTT) 41-16N 069-16E 488M
Dec 15, 2019 - 10:30 PM EST / 2019.12.16 0330 UTC
Wind: from the ESE (110 degrees) at 5 MPH (4 KT):0
Visibility: less than 1 mile:0
Weather: partial fog
Temperature: 24 F (-4 C)
Windchill: 17 F (-8 C):1
Dew Point: 24 F (-4 C)
Relative Humidity: 100%
Pressure (altimeter): 30.36 in. Hg (1028 hPa)
ob: UTTT 160330Z 11004KT 0900 R08L/0900 PRFG NSC M04/M04 Q1028 R08L/CLRD70 NOSIG
cycle: 3

Station Type Date Time Source
UTTT TAF 2019/12/15 22:39 UTC NOAA

TAF
AMD TAF
AMD UTTT 152130Z 1522/1618 04010KT 4000 BR NSC
TEMPO 1522/1605 VRB02KT 0300 FZFG VV002

Example: see airport list